sensor_id;sensor_type;location;lat;lon;timestamp;P1;durP1;ratioP1;P2;durP2;ratioP2
11481;SDS011;5797;51.662;6.748;2023-02-18T00:01:37;33.57;;;18.17;;
11481;SDS011;5797;51.662;6.748;2023-02-18T00:04:07;33.30;;;17.80;;
11481;SDS011;5797;51.662;6.748;2023-02-18T00:06:36;36.43;;;18.27;;
11481;SDS011;5797;51.662;6.748;2023-02-18T00:09:05;36.90;;;18.20;;
11481;SDS011;5797;51.662;6.748;2023-02-18T00:11:35;36.70;;;18.93;;
11481;SDS011;5797;51.662;6.748;2023-02-18T00:14:05;39.53;;;18.70;;
11481;SDS011;5797;51.662;6.748;2023-02-18T00:16:35;37.17;;;18.50;;
11481;SDS011;5797;51.662;6.748;2023-02-18T00:19:04;33.67;;;17.57;;
11481;SDS011;5797;51.662;6.748;2023-02-18T00:21:39;35.73;;;16.87;;
11481;SDS011;5797;51.662;6.748;2023-02-18T00:24:17;32.60;;;16.77;;
11481;SDS011;5797;51.662;6.748;2023-02-18T00:26:48;34.47;;;17.83;;
11481;SDS011;5797;51.662;6.748;2023-02-18T00:29:18;36.70;;;17.70;;
11481;SDS011;5797;51.662;6.748;2023-02-18T00:31:47;34.80;;;17.20;;
11481;SDS011;5797;51.662;6.748;2023-02-18T00:34:16;39.20;;;17.53;;
11481;SDS011;5797;51.662;6.748;2023-02-18T00:36:45;36.37;;;17.60;;
11481;SDS011;5797;51.662;6.748;2023-02-18T00:39:14;33.13;;;16.83;;
11481;SDS011;5797;51.662;6.748;2023-02-18T00:41:43;39.43;;;17.87;;
11481;SDS011;5797;51.662;6.748;2023-02-18T00:44:11;39.50;;;18.77;;
11481;SDS011;5797;51.662;6.748;2023-02-18T00:46:42;36.53;;;17.50;;
11481;SDS011;5797;51.662;6.748;2023-02-18T00:49:14;35.57;;;18.10;;
11481;SDS011;5797;51.662;6.748;2023-02-18T00:51:42;38.63;;;17.97;;
11481;SDS011;5797;51.662;6.748;2023-02-18T00:54:13;37.30;;;18.63;;
11481;SDS011;5797;51.662;6.748;2023-02-18T00:56:42;44.53;;;19.53;;
11481;SDS011;5797;51.662;6.748;2023-02-18T00:59:10;36.70;;;18.93;;
11481;SDS011;5797;51.662;6.748;2023-02-18T01:01:39;38.40;;;19.07;;
11481;SDS011;5797;51.662;6.748;2023-02-18T01:04:07;45.00;;;19.57;;
11481;SDS011;5797;51.662;6.748;2023-02-18T01:06:36;33.10;;;17.73;;
11481;SDS011;5797;51.662;6.748;2023-02-18T01:09:05;39.83;;;20.47;;
11481;SDS011;5797;51.662;6.748;2023-02-18T01:11:35;43.17;;;18.93;;
11481;SDS011;5797;51.662;6.748;2023-02-18T01:14:03;32.97;;;17.97;;
11481;SDS011;5797;51.662;6.748;2023-02-18T01:16:32;36.20;;;17.03;;
11481;SDS011;5797;51.662;6.748;2023-02-18T01:19:00;37.87;;;17.33;;
11481;SDS011;5797;51.662;6.748;2023-02-18T01:21:29;36.80;;;16.77;;
11481;SDS011;5797;51.662;6.748;2023-02-18T01:23:57;38.10;;;18.70;;
11481;SDS011;5797;51.662;6.748;2023-02-18T01:26:26;40.67;;;19.00;;
11481;SDS011;5797;51.662;6.748;2023-02-18T01:28:56;40.60;;;17.63;;
11481;SDS011;5797;51.662;6.748;2023-02-18T01:31:25;32.77;;;16.73;;
11481;SDS011;5797;51.662;6.748;2023-02-18T01:33:53;34.23;;;18.13;;
11481;SDS011;5797;51.662;6.748;2023-02-18T01:36:22;38.37;;;18.27;;
11481;SDS011;5797;51.662;6.748;2023-02-18T01:38:55;37.53;;;16.87;;
11481;SDS011;5797;51.662;6.748;2023-02-18T01:41:23;38.27;;;18.10;;
11481;SDS011;5797;51.662;6.748;2023-02-18T01:44:11;34.47;;;17.50;;
11481;SDS011;5797;51.662;6.748;2023-02-18T01:46:41;30.67;;;17.07;;
11481;SDS011;5797;51.662;6.748;2023-02-18T01:49:09;34.20;;;16.97;;
11481;SDS011;5797;51.662;6.748;2023-02-18T01:51:41;40.50;;;17.77;;
11481;SDS011;5797;51.662;6.748;2023-02-18T01:54:12;42.43;;;17.63;;
11481;SDS011;5797;51.662;6.748;2023-02-18T01:56:44;39.50;;;18.67;;
11481;SDS011;5797;51.662;6.748;2023-02-18T01:59:17;40.33;;;17.37;;
11481;SDS011;5797;51.662;6.748;2023-02-18T02:01:47;39.30;;;17.70;;
11481;SDS011;5797;51.662;6.748;2023-02-18T02:04:16;38.40;;;17.37;;
11481;SDS011;5797;51.662;6.748;2023-02-18T02:06:45;37.73;;;17.70;;
11481;SDS011;5797;51.662;6.748;2023-02-18T02:09:14;42.33;;;19.10;;
11481;SDS011;5797;51.662;6.748;2023-02-18T02:11:53;33.70;;;16.47;;
11481;SDS011;5797;51.662;6.748;2023-02-18T02:14:36;37.17;;;16.43;;
11481;SDS011;5797;51.662;6.748;2023-02-18T02:17:16;38.20;;;17.77;;
11481;SDS011;5797;51.662;6.748;2023-02-18T02:20:12;34.23;;;17.70;;
11481;SDS011;5797;51.662;6.748;2023-02-18T02:23:13;35.33;;;16.93;;
11481;SDS011;5797;51.662;6.748;2023-02-18T02:26:05;33.53;;;15.50;;
11481;SDS011;5797;51.662;6.748;2023-02-18T02:32:00;33.20;;;13.23;;
11481;SDS011;5797;51.662;6.748;2023-02-18T02:34:42;32.20;;;15.23;;
11481;SDS011;5797;51.662;6.748;2023-02-18T02:37:15;27.07;;;15.00;;
11481;SDS011;5797;51.662;6.748;2023-02-18T02:39:56;31.73;;;14.60;;
11481;SDS011;5797;51.662;6.748;2023-02-18T02:42:34;30.00;;;14.80;;
11481;SDS011;5797;51.662;6.748;2023-02-18T02:45:09;32.43;;;15.90;;
11481;SDS011;5797;51.662;6.748;2023-02-18T02:47:43;29.13;;;13.83;;
11481;SDS011;5797;51.662;6.748;2023-02-18T02:50:16;25.43;;;13.40;;
11481;SDS011;5797;51.662;6.748;2023-02-18T02:52:49;27.17;;;13.13;;
11481;SDS011;5797;51.662;6.748;2023-02-18T02:55:19;24.17;;;11.40;;
11481;SDS011;5797;51.662;6.748;2023-02-18T02:57:50;23.00;;;11.50;;
11481;SDS011;5797;51.662;6.748;2023-02-18T03:00:26;27.13;;;12.40;;
11481;SDS011;5797;51.662;6.748;2023-02-18T03:03:09;20.97;;;10.17;;
11481;SDS011;5797;51.662;6.748;2023-02-18T03:05:54;17.63;;;10.07;;
11481;SDS011;5797;51.662;6.748;2023-02-18T03:08:29;16.67;;;9.57;;
11481;SDS011;5797;51.662;6.748;2023-02-18T03:11:05;21.30;;;10.07;;
11481;SDS011;5797;51.662;6.748;2023-02-18T03:13:44;16.57;;;8.50;;
11481;SDS011;5797;51.662;6.748;2023-02-18T03:16:23;15.93;;;9.33;;
11481;SDS011;5797;51.662;6.748;2023-02-18T03:18:56;19.20;;;8.53;;
11481;SDS011;5797;51.662;6.748;2023-02-18T03:21:31;16.27;;;9.03;;
11481;SDS011;5797;51.662;6.748;2023-02-18T03:24:02;17.97;;;9.20;;
11481;SDS011;5797;51.662;6.748;2023-02-18T03:26:35;18.80;;;9.57;;
11481;SDS011;5797;51.662;6.748;2023-02-18T03:29:06;18.60;;;9.30;;
11481;SDS011;5797;51.662;6.748;2023-02-18T03:31:35;19.13;;;9.80;;
11481;SDS011;5797;51.662;6.748;2023-02-18T03:34:06;19.00;;;9.13;;
11481;SDS011;5797;51.662;6.748;2023-02-18T03:36:38;17.63;;;9.50;;
11481;SDS011;5797;51.662;6.748;2023-02-18T03:39:08;14.30;;;7.73;;
11481;SDS011;5797;51.662;6.748;2023-02-18T03:41:39;19.63;;;10.50;;
11481;SDS011;5797;51.662;6.748;2023-02-18T03:44:08;18.30;;;9.37;;
11481;SDS011;5797;51.662;6.748;2023-02-18T03:46:40;20.93;;;10.37;;
11481;SDS011;5797;51.662;6.748;2023-02-18T03:49:10;21.37;;;10.43;;
11481;SDS011;5797;51.662;6.748;2023-02-18T03:51:41;19.00;;;10.57;;
11481;SDS011;5797;51.662;6.748;2023-02-18T03:54:10;19.50;;;10.03;;
11481;SDS011;5797;51.662;6.748;2023-02-18T03:56:41;19.00;;;10.60;;
11481;SDS011;5797;51.662;6.748;2023-02-18T03:59:10;20.47;;;8.97;;
11481;SDS011;5797;51.662;6.748;2023-02-18T04:01:39;21.30;;;10.13;;
11481;SDS011;5797;51.662;6.748;2023-02-18T04:04:07;21.13;;;9.83;;
11481;SDS011;5797;51.662;6.748;2023-02-18T04:06:36;20.43;;;9.83;;
11481;SDS011;5797;51.662;6.748;2023-02-18T04:09:06;22.37;;;10.47;;
11481;SDS011;5797;51.662;6.748;2023-02-18T04:11:35;22.27;;;9.97;;
11481;SDS011;5797;51.662;6.748;2023-02-18T04:14:04;19.07;;;9.80;;
11481;SDS011;5797;51.662;6.748;2023-02-18T04:16:33;23.17;;;10.93;;
11481;SDS011;5797;51.662;6.748;2023-02-18T04:19:02;21.03;;;9.10;;
11481;SDS011;5797;51.662;6.748;2023-02-18T04:21:31;20.90;;;9.07;;
11481;SDS011;5797;51.662;6.748;2023-02-18T04:23:59;20.33;;;10.00;;
11481;SDS011;5797;51.662;6.748;2023-02-18T04:26:29;22.70;;;9.90;;
11481;SDS011;5797;51.662;6.748;2023-02-18T04:28:58;21.97;;;9.67;;
11481;SDS011;5797;51.662;6.748;2023-02-18T04:31:26;17.77;;;9.07;;
11481;SDS011;5797;51.662;6.748;2023-02-18T04:33:55;16.63;;;8.37;;
11481;SDS011;5797;51.662;6.748;2023-02-18T04:36:23;19.87;;;8.67;;
11481;SDS011;5797;51.662;6.748;2023-02-18T04:38:52;18.63;;;8.90;;
11481;SDS011;5797;51.662;6.748;2023-02-18T04:41:20;17.00;;;8.50;;
11481;SDS011;5797;51.662;6.748;2023-02-18T04:43:50;16.70;;;8.07;;
11481;SDS011;5797;51.662;6.748;2023-02-18T04:46:19;12.13;;;6.50;;
11481;SDS011;5797;51.662;6.748;2023-02-18T04:48:47;15.40;;;7.97;;
11481;SDS011;5797;51.662;6.748;2023-02-18T04:51:16;19.10;;;8.10;;
11481;SDS011;5797;51.662;6.748;2023-02-18T04:53:44;17.17;;;8.07;;
11481;SDS011;5797;51.662;6.748;2023-02-18T04:56:13;14.03;;;7.17;;
11481;SDS011;5797;51.662;6.748;2023-02-18T04:58:41;13.60;;;5.87;;
11481;SDS011;5797;51.662;6.748;2023-02-18T05:01:11;11.87;;;5.73;;
11481;SDS011;5797;51.662;6.748;2023-02-18T05:03:40;11.57;;;5.87;;
11481;SDS011;5797;51.662;6.748;2023-02-18T05:06:08;8.47;;;5.10;;
11481;SDS011;5797;51.662;6.748;2023-02-18T05:08:37;11.83;;;5.77;;
11481;SDS011;5797;51.662;6.748;2023-02-18T05:11:06;8.70;;;4.67;;
11481;SDS011;5797;51.662;6.748;2023-02-18T05:13:34;9.57;;;4.33;;
11481;SDS011;5797;51.662;6.748;2023-02-18T05:16:04;7.87;;;3.57;;
11481;SDS011;5797;51.662;6.748;2023-02-18T05:18:34;6.40;;;3.53;;
11481;SDS011;5797;51.662;6.748;2023-02-18T05:21:03;5.37;;;3.33;;
11481;SDS011;5797;51.662;6.748;2023-02-18T05:23:32;4.43;;;2.90;;
11481;SDS011;5797;51.662;6.748;2023-02-18T05:26:00;5.20;;;2.70;;
11481;SDS011;5797;51.662;6.748;2023-02-18T05:28:29;5.00;;;2.87;;
11481;SDS011;5797;51.662;6.748;2023-02-18T05:30:58;3.47;;;2.47;;
11481;SDS011;5797;51.662;6.748;2023-02-18T05:33:27;4.20;;;2.33;;
11481;SDS011;5797;51.662;6.748;2023-02-18T05:35:57;3.47;;;2.40;;
11481;SDS011;5797;51.662;6.748;2023-02-18T05:38:25;4.03;;;2.40;;
11481;SDS011;5797;51.662;6.748;2023-02-18T05:40:54;3.13;;;2.07;;
11481;SDS011;5797;51.662;6.748;2023-02-18T05:43:22;3.27;;;2.03;;
11481;SDS011;5797;51.662;6.748;2023-02-18T05:45:51;4.00;;;1.83;;
11481;SDS011;5797;51.662;6.748;2023-02-18T05:48:20;3.33;;;1.93;;
11481;SDS011;5797;51.662;6.748;2023-02-18T05:50:48;4.27;;;2.17;;
11481;SDS011;5797;51.662;6.748;2023-02-18T05:53:21;2.60;;;1.70;;
11481;SDS011;5797;51.662;6.748;2023-02-18T05:55:49;4.03;;;2.00;;
11481;SDS011;5797;51.662;6.748;2023-02-18T05:58:18;4.23;;;2.23;;
11481;SDS011;5797;51.662;6.748;2023-02-18T06:00:47;2.93;;;2.03;;
11481;SDS011;5797;51.662;6.748;2023-02-18T06:03:17;2.83;;;2.07;;
11481;SDS011;5797;51.662;6.748;2023-02-18T06:05:48;3.70;;;2.07;;
11481;SDS011;5797;51.662;6.748;2023-02-18T06:08:17;2.67;;;2.00;;
11481;SDS011;5797;51.662;6.748;2023-02-18T06:10:47;2.63;;;1.97;;
11481;SDS011;5797;51.662;6.748;2023-02-18T06:13:16;2.20;;;1.70;;
11481;SDS011;5797;51.662;6.748;2023-02-18T06:15:45;2.70;;;1.90;;
11481;SDS011;5797;51.662;6.748;2023-02-18T06:18:14;3.30;;;2.03;;
11481;SDS011;5797;51.662;6.748;2023-02-18T06:20:42;2.80;;;1.90;;
11481;SDS011;5797;51.662;6.748;2023-02-18T06:23:11;3.17;;;1.93;;
11481;SDS011;5797;51.662;6.748;2023-02-18T06:25:40;2.53;;;1.97;;
11481;SDS011;5797;51.662;6.748;2023-02-18T06:28:11;4.20;;;2.10;;
11481;SDS011;5797;51.662;6.748;2023-02-18T06:30:39;3.10;;;1.97;;
11481;SDS011;5797;51.662;6.748;2023-02-18T06:33:08;2.40;;;2.13;;
11481;SDS011;5797;51.662;6.748;2023-02-18T06:35:36;2.70;;;1.90;;
11481;SDS011;5797;51.662;6.748;2023-02-18T06:38:05;2.83;;;2.17;;
11481;SDS011;5797;51.662;6.748;2023-02-18T06:40:33;2.03;;;1.60;;
11481;SDS011;5797;51.662;6.748;2023-02-18T06:43:02;4.37;;;2.53;;
11481;SDS011;5797;51.662;6.748;2023-02-18T06:45:32;3.30;;;1.90;;
11481;SDS011;5797;51.662;6.748;2023-02-18T06:48:01;2.73;;;2.10;;
11481;SDS011;5797;51.662;6.748;2023-02-18T06:50:29;2.33;;;1.87;;
11481;SDS011;5797;51.662;6.748;2023-02-18T06:52:58;2.67;;;1.73;;
11481;SDS011;5797;51.662;6.748;2023-02-18T06:55:27;2.07;;;1.87;;
11481;SDS011;5797;51.662;6.748;2023-02-18T06:57:55;1.97;;;1.50;;
11481;SDS011;5797;51.662;6.748;2023-02-18T07:00:24;3.27;;;1.83;;
11481;SDS011;5797;51.662;6.748;2023-02-18T07:02:54;2.60;;;1.90;;
11481;SDS011;5797;51.662;6.748;2023-02-18T07:05:23;2.60;;;1.90;;
11481;SDS011;5797;51.662;6.748;2023-02-18T07:07:51;3.40;;;2.23;;
11481;SDS011;5797;51.662;6.748;2023-02-18T07:10:20;2.73;;;2.00;;
11481;SDS011;5797;51.662;6.748;2023-02-18T07:12:48;2.83;;;1.83;;
11481;SDS011;5797;51.662;6.748;2023-02-18T07:15:17;6.67;;;2.00;;
11481;SDS011;5797;51.662;6.748;2023-02-18T07:17:50;2.37;;;1.70;;
11481;SDS011;5797;51.662;6.748;2023-02-18T07:20:20;3.13;;;1.90;;
11481;SDS011;5797;51.662;6.748;2023-02-18T07:22:49;3.00;;;2.10;;
11481;SDS011;5797;51.662;6.748;2023-02-18T07:25:18;2.77;;;2.10;;
11481;SDS011;5797;51.662;6.748;2023-02-18T07:27:53;2.17;;;1.97;;
11481;SDS011;5797;51.662;6.748;2023-02-18T07:30:21;3.27;;;2.23;;
11481;SDS011;5797;51.662;6.748;2023-02-18T07:32:50;4.37;;;2.37;;
11481;SDS011;5797;51.662;6.748;2023-02-18T07:35:21;2.60;;;2.00;;
11481;SDS011;5797;51.662;6.748;2023-02-18T07:37:49;2.47;;;1.90;;
11481;SDS011;5797;51.662;6.748;2023-02-18T07:40:19;3.50;;;2.20;;
11481;SDS011;5797;51.662;6.748;2023-02-18T07:42:48;2.90;;;2.23;;
11481;SDS011;5797;51.662;6.748;2023-02-18T07:45:18;2.40;;;1.90;;
11481;SDS011;5797;51.662;6.748;2023-02-18T07:47:47;3.00;;;2.00;;
11481;SDS011;5797;51.662;6.748;2023-02-18T07:50:15;3.13;;;1.83;;
11481;SDS011;5797;51.662;6.748;2023-02-18T07:52:45;2.70;;;2.00;;
11481;SDS011;5797;51.662;6.748;2023-02-18T07:55:13;3.10;;;2.40;;
11481;SDS011;5797;51.662;6.748;2023-02-18T07:57:42;2.87;;;2.27;;
11481;SDS011;5797;51.662;6.748;2023-02-18T08:00:26;3.17;;;2.13;;
11481;SDS011;5797;51.662;6.748;2023-02-18T08:02:55;2.93;;;1.90;;
11481;SDS011;5797;51.662;6.748;2023-02-18T08:05:23;3.07;;;2.20;;
11481;SDS011;5797;51.662;6.748;2023-02-18T08:07:53;3.03;;;2.00;;
11481;SDS011;5797;51.662;6.748;2023-02-18T08:10:21;4.17;;;2.37;;
11481;SDS011;5797;51.662;6.748;2023-02-18T08:12:50;4.77;;;2.47;;
11481;SDS011;5797;51.662;6.748;2023-02-18T08:15:18;3.93;;;2.70;;
11481;SDS011;5797;51.662;6.748;2023-02-18T08:17:47;5.30;;;2.70;;
11481;SDS011;5797;51.662;6.748;2023-02-18T08:20:16;4.57;;;2.10;;
11481;SDS011;5797;51.662;6.748;2023-02-18T08:22:44;3.33;;;2.40;;
11481;SDS011;5797;51.662;6.748;2023-02-18T08:25:14;2.90;;;2.00;;
11481;SDS011;5797;51.662;6.748;2023-02-18T08:27:55;3.43;;;2.33;;
11481;SDS011;5797;51.662;6.748;2023-02-18T08:30:24;2.37;;;1.93;;
11481;SDS011;5797;51.662;6.748;2023-02-18T08:32:53;3.83;;;2.30;;
11481;SDS011;5797;51.662;6.748;2023-02-18T08:35:21;4.77;;;2.43;;
11481;SDS011;5797;51.662;6.748;2023-02-18T08:37:50;4.83;;;2.60;;
11481;SDS011;5797;51.662;6.748;2023-02-18T08:40:21;7.30;;;3.20;;
11481;SDS011;5797;51.662;6.748;2023-02-18T08:42:50;5.23;;;2.97;;
11481;SDS011;5797;51.662;6.748;2023-02-18T08:45:20;4.67;;;3.03;;
11481;SDS011;5797;51.662;6.748;2023-02-18T08:47:49;9.80;;;3.17;;
11481;SDS011;5797;51.662;6.748;2023-02-18T08:50:37;8.93;;;3.07;;
11481;SDS011;5797;51.662;6.748;2023-02-18T08:53:06;7.77;;;3.10;;
11481;SDS011;5797;51.662;6.748;2023-02-18T08:55:39;6.53;;;3.13;;
11481;SDS011;5797;51.662;6.748;2023-02-18T08:58:08;5.67;;;3.03;;
11481;SDS011;5797;51.662;6.748;2023-02-18T09:00:38;7.57;;;3.50;;
11481;SDS011;5797;51.662;6.748;2023-02-18T09:03:08;9.93;;;3.07;;
11481;SDS011;5797;51.662;6.748;2023-02-18T09:05:39;6.30;;;3.10;;
11481;SDS011;5797;51.662;6.748;2023-02-18T09:08:08;11.03;;;3.20;;
11481;SDS011;5797;51.662;6.748;2023-02-18T09:10:38;7.40;;;3.67;;
11481;SDS011;5797;51.662;6.748;2023-02-18T09:13:06;11.07;;;4.03;;
11481;SDS011;5797;51.662;6.748;2023-02-18T09:15:35;8.00;;;3.43;;
11481;SDS011;5797;51.662;6.748;2023-02-18T09:18:03;9.37;;;3.60;;
11481;SDS011;5797;51.662;6.748;2023-02-18T09:20:32;7.43;;;4.57;;
11481;SDS011;5797;51.662;6.748;2023-02-18T09:23:00;9.20;;;4.57;;
11481;SDS011;5797;51.662;6.748;2023-02-18T09:25:29;10.40;;;4.13;;
11481;SDS011;5797;51.662;6.748;2023-02-18T09:27:59;5.83;;;3.57;;
11481;SDS011;5797;51.662;6.748;2023-02-18T09:30:28;7.33;;;4.57;;
11481;SDS011;5797;51.662;6.748;2023-02-18T09:32:56;10.80;;;4.80;;
11481;SDS011;5797;51.662;6.748;2023-02-18T09:35:25;10.77;;;5.50;;
11481;SDS011;5797;51.662;6.748;2023-02-18T09:38:05;14.83;;;5.13;;
11481;SDS011;5797;51.662;6.748;2023-02-18T09:40:35;13.33;;;5.13;;
11481;SDS011;5797;51.662;6.748;2023-02-18T09:43:06;9.23;;;4.23;;
11481;SDS011;5797;51.662;6.748;2023-02-18T09:45:41;12.03;;;5.87;;
11481;SDS011;5797;51.662;6.748;2023-02-18T09:48:10;14.07;;;4.97;;
11481;SDS011;5797;51.662;6.748;2023-02-18T09:50:38;12.53;;;4.57;;
11481;SDS011;5797;51.662;6.748;2023-02-18T09:53:09;10.77;;;6.87;;
11481;SDS011;5797;51.662;6.748;2023-02-18T09:55:39;14.37;;;5.47;;
11481;SDS011;5797;51.662;6.748;2023-02-18T09:58:11;15.70;;;5.47;;
11481;SDS011;5797;51.662;6.748;2023-02-18T10:00:43;26.43;;;6.50;;
11481;SDS011;5797;51.662;6.748;2023-02-18T10:03:15;10.37;;;5.00;;
11481;SDS011;5797;51.662;6.748;2023-02-18T10:05:47;12.10;;;5.80;;
11481;SDS011;5797;51.662;6.748;2023-02-18T10:08:23;14.03;;;5.60;;
11481;SDS011;5797;51.662;6.748;2023-02-18T10:10:53;13.70;;;6.33;;
11481;SDS011;5797;51.662;6.748;2023-02-18T10:13:24;10.40;;;5.30;;
11481;SDS011;5797;51.662;6.748;2023-02-18T10:15:55;10.90;;;5.20;;
11481;SDS011;5797;51.662;6.748;2023-02-18T10:18:25;12.57;;;4.97;;
11481;SDS011;5797;51.662;6.748;2023-02-18T10:20:58;12.90;;;4.17;;
11481;SDS011;5797;51.662;6.748;2023-02-18T10:23:31;9.30;;;4.60;;
11481;SDS011;5797;51.662;6.748;2023-02-18T10:26:01;13.63;;;5.20;;
11481;SDS011;5797;51.662;6.748;2023-02-18T10:28:35;14.43;;;4.93;;
11481;SDS011;5797;51.662;6.748;2023-02-18T10:31:06;10.53;;;4.53;;
11481;SDS011;5797;51.662;6.748;2023-02-18T10:33:39;9.10;;;3.63;;
11481;SDS011;5797;51.662;6.748;2023-02-18T10:36:16;8.97;;;4.43;;
11481;SDS011;5797;51.662;6.748;2023-02-18T10:38:55;11.10;;;5.03;;
11481;SDS011;5797;51.662;6.748;2023-02-18T10:41:31;8.47;;;4.53;;
11481;SDS011;5797;51.662;6.748;2023-02-18T10:44:08;11.80;;;5.10;;
11481;SDS011;5797;51.662;6.748;2023-02-18T10:46:42;13.57;;;5.30;;
11481;SDS011;5797;51.662;6.748;2023-02-18T10:49:23;9.03;;;4.17;;
11481;SDS011;5797;51.662;6.748;2023-02-18T10:51:59;11.93;;;3.87;;
11481;SDS011;5797;51.662;6.748;2023-02-18T10:54:46;9.13;;;4.10;;
11481;SDS011;5797;51.662;6.748;2023-02-18T10:57:16;12.87;;;4.57;;
11481;SDS011;5797;51.662;6.748;2023-02-18T11:02:39;9.67;;;5.13;;
11481;SDS011;5797;51.662;6.748;2023-02-18T11:05:15;9.90;;;4.57;;
11481;SDS011;5797;51.662;6.748;2023-02-18T11:07:47;13.03;;;4.73;;
11481;SDS011;5797;51.662;6.748;2023-02-18T11:10:18;11.93;;;4.93;;
11481;SDS011;5797;51.662;6.748;2023-02-18T11:12:50;8.97;;;4.27;;
11481;SDS011;5797;51.662;6.748;2023-02-18T11:15:24;13.43;;;4.70;;
11481;SDS011;5797;51.662;6.748;2023-02-18T11:17:54;9.40;;;4.50;;
11481;SDS011;5797;51.662;6.748;2023-02-18T11:20:27;14.10;;;4.33;;
11481;SDS011;5797;51.662;6.748;2023-02-18T11:22:59;14.27;;;4.93;;
11481;SDS011;5797;51.662;6.748;2023-02-18T11:25:52;11.40;;;5.07;;
11481;SDS011;5797;51.662;6.748;2023-02-18T11:28:41;13.53;;;4.67;;
11481;SDS011;5797;51.662;6.748;2023-02-18T11:31:15;11.17;;;4.87;;
11481;SDS011;5797;51.662;6.748;2023-02-18T11:33:47;13.87;;;5.00;;
11481;SDS011;5797;51.662;6.748;2023-02-18T11:36:20;12.43;;;5.23;;
11481;SDS011;5797;51.662;6.748;2023-02-18T11:38:51;10.67;;;4.57;;
11481;SDS011;5797;51.662;6.748;2023-02-18T11:41:27;10.83;;;5.90;;
11481;SDS011;5797;51.662;6.748;2023-02-18T11:43:58;10.53;;;5.33;;
11481;SDS011;5797;51.662;6.748;2023-02-18T11:46:29;13.07;;;5.10;;
11481;SDS011;5797;51.662;6.748;2023-02-18T11:49:09;7.63;;;5.10;;
11481;SDS011;5797;51.662;6.748;2023-02-18T11:51:39;9.73;;;5.30;;
11481;SDS011;5797;51.662;6.748;2023-02-18T11:54:20;13.57;;;5.33;;
11481;SDS011;5797;51.662;6.748;2023-02-18T11:56:54;9.13;;;5.00;;
11481;SDS011;5797;51.662;6.748;2023-02-18T11:59:24;9.57;;;5.10;;
11481;SDS011;5797;51.662;6.748;2023-02-18T12:02:05;12.67;;;5.80;;
11481;SDS011;5797;51.662;6.748;2023-02-18T12:04:47;7.10;;;4.70;;
11481;SDS011;5797;51.662;6.748;2023-02-18T12:07:19;10.17;;;5.47;;
11481;SDS011;5797;51.662;6.748;2023-02-18T12:09:50;9.57;;;5.67;;
11481;SDS011;5797;51.662;6.748;2023-02-18T12:12:23;9.43;;;5.47;;
11481;SDS011;5797;51.662;6.748;2023-02-18T12:14:53;10.60;;;5.97;;
11481;SDS011;5797;51.662;6.748;2023-02-18T12:17:28;10.67;;;5.90;;
11481;SDS011;5797;51.662;6.748;2023-02-18T12:20:11;10.93;;;7.07;;
11481;SDS011;5797;51.662;6.748;2023-02-18T12:22:55;10.23;;;5.47;;
11481;SDS011;5797;51.662;6.748;2023-02-18T12:25:33;9.27;;;6.30;;
11481;SDS011;5797;51.662;6.748;2023-02-18T12:28:12;9.07;;;5.47;;
11481;SDS011;5797;51.662;6.748;2023-02-18T12:30:52;6.67;;;4.67;;
11481;SDS011;5797;51.662;6.748;2023-02-18T12:33:32;10.63;;;5.87;;
11481;SDS011;5797;51.662;6.748;2023-02-18T12:36:09;9.30;;;5.37;;
11481;SDS011;5797;51.662;6.748;2023-02-18T12:38:51;10.53;;;5.70;;
11481;SDS011;5797;51.662;6.748;2023-02-18T12:41:26;12.00;;;6.00;;
11481;SDS011;5797;51.662;6.748;2023-02-18T12:44:01;10.90;;;5.90;;
11481;SDS011;5797;51.662;6.748;2023-02-18T12:46:38;7.33;;;4.83;;
11481;SDS011;5797;51.662;6.748;2023-02-18T12:49:24;12.37;;;5.50;;
11481;SDS011;5797;51.662;6.748;2023-02-18T12:52:06;9.47;;;5.67;;
11481;SDS011;5797;51.662;6.748;2023-02-18T12:54:47;9.60;;;5.30;;
11481;SDS011;5797;51.662;6.748;2023-02-18T12:57:33;8.90;;;5.60;;
11481;SDS011;5797;51.662;6.748;2023-02-18T13:00:11;16.30;;;5.27;;
11481;SDS011;5797;51.662;6.748;2023-02-18T13:02:59;8.27;;;4.50;;
11481;SDS011;5797;51.662;6.748;2023-02-18T13:05:48;10.80;;;6.47;;
11481;SDS011;5797;51.662;6.748;2023-02-18T13:08:24;8.97;;;6.00;;
11481;SDS011;5797;51.662;6.748;2023-02-18T13:11:08;9.90;;;6.50;;
11481;SDS011;5797;51.662;6.748;2023-02-18T13:13:44;12.03;;;5.77;;
11481;SDS011;5797;51.662;6.748;2023-02-18T13:16:18;9.00;;;5.87;;
11481;SDS011;5797;51.662;6.748;2023-02-18T13:18:49;12.73;;;5.90;;
11481;SDS011;5797;51.662;6.748;2023-02-18T13:21:27;9.17;;;6.07;;
11481;SDS011;5797;51.662;6.748;2023-02-18T13:23:57;11.63;;;6.17;;
11481;SDS011;5797;51.662;6.748;2023-02-18T13:26:38;15.13;;;6.10;;
11481;SDS011;5797;51.662;6.748;2023-02-18T13:29:14;16.23;;;6.07;;
11481;SDS011;5797;51.662;6.748;2023-02-18T13:31:51;11.07;;;6.47;;
11481;SDS011;5797;51.662;6.748;2023-02-18T13:34:34;12.87;;;6.27;;
11481;SDS011;5797;51.662;6.748;2023-02-18T13:37:11;13.27;;;6.93;;
11481;SDS011;5797;51.662;6.748;2023-02-18T13:39:46;13.37;;;5.97;;
11481;SDS011;5797;51.662;6.748;2023-02-18T13:42:24;9.90;;;5.70;;
11481;SDS011;5797;51.662;6.748;2023-02-18T13:45:04;14.40;;;6.87;;
11481;SDS011;5797;51.662;6.748;2023-02-18T13:47:57;11.53;;;6.10;;
11481;SDS011;5797;51.662;6.748;2023-02-18T13:50:30;9.97;;;6.37;;
11481;SDS011;5797;51.662;6.748;2023-02-18T13:53:21;16.67;;;6.43;;
11481;SDS011;5797;51.662;6.748;2023-02-18T13:55:52;19.40;;;7.60;;
11481;SDS011;5797;51.662;6.748;2023-02-18T13:58:23;11.73;;;7.70;;
11481;SDS011;5797;51.662;6.748;2023-02-18T14:00:54;14.20;;;7.47;;
11481;SDS011;5797;51.662;6.748;2023-02-18T14:03:33;13.07;;;6.80;;
11481;SDS011;5797;51.662;6.748;2023-02-18T14:06:12;16.13;;;8.63;;
11481;SDS011;5797;51.662;6.748;2023-02-18T14:08:44;14.10;;;7.57;;
11481;SDS011;5797;51.662;6.748;2023-02-18T14:17:12;18.33;;;8.50;;
11481;SDS011;5797;51.662;6.748;2023-02-18T14:22:55;16.80;;;9.07;;
11481;SDS011;5797;51.662;6.748;2023-02-18T14:25:33;17.17;;;8.30;;
11481;SDS011;5797;51.662;6.748;2023-02-18T14:28:33;15.70;;;7.60;;
11481;SDS011;5797;51.662;6.748;2023-02-18T14:31:05;15.70;;;8.03;;
11481;SDS011;5797;51.662;6.748;2023-02-18T14:34:01;14.90;;;8.40;;
11481;SDS011;5797;51.662;6.748;2023-02-18T14:36:42;18.87;;;8.90;;
11481;SDS011;5797;51.662;6.748;2023-02-18T14:39:23;15.63;;;8.37;;
11481;SDS011;5797;51.662;6.748;2023-02-18T14:42:00;20.37;;;8.60;;
11481;SDS011;5797;51.662;6.748;2023-02-18T14:44:35;18.30;;;9.37;;
11481;SDS011;5797;51.662;6.748;2023-02-18T14:50:03;14.23;;;8.13;;
11481;SDS011;5797;51.662;6.748;2023-02-18T14:52:37;18.47;;;7.93;;
11481;SDS011;5797;51.662;6.748;2023-02-18T14:55:13;19.80;;;8.73;;
11481;SDS011;5797;51.662;6.748;2023-02-18T14:57:47;10.43;;;6.37;;
11481;SDS011;5797;51.662;6.748;2023-02-18T15:00:18;14.97;;;8.20;;
11481;SDS011;5797;51.662;6.748;2023-02-18T15:02:48;13.83;;;7.47;;
11481;SDS011;5797;51.662;6.748;2023-02-18T15:05:18;15.80;;;7.33;;
11481;SDS011;5797;51.662;6.748;2023-02-18T15:07:55;13.63;;;8.13;;
11481;SDS011;5797;51.662;6.748;2023-02-18T15:10:26;14.77;;;7.90;;
11481;SDS011;5797;51.662;6.748;2023-02-18T15:13:04;16.83;;;8.47;;
11481;SDS011;5797;51.662;6.748;2023-02-18T15:15:33;13.83;;;7.93;;
11481;SDS011;5797;51.662;6.748;2023-02-18T15:18:02;17.93;;;8.50;;
11481;SDS011;5797;51.662;6.748;2023-02-18T15:20:32;16.70;;;8.43;;
11481;SDS011;5797;51.662;6.748;2023-02-18T15:23:01;13.33;;;8.27;;
11481;SDS011;5797;51.662;6.748;2023-02-18T15:25:30;16.30;;;7.53;;
11481;SDS011;5797;51.662;6.748;2023-02-18T15:27:58;17.03;;;7.67;;
11481;SDS011;5797;51.662;6.748;2023-02-18T15:30:29;17.60;;;8.33;;
11481;SDS011;5797;51.662;6.748;2023-02-18T15:32:59;17.03;;;7.83;;
11481;SDS011;5797;51.662;6.748;2023-02-18T15:35:29;17.50;;;8.47;;
11481;SDS011;5797;51.662;6.748;2023-02-18T15:37:59;15.07;;;7.23;;
11481;SDS011;5797;51.662;6.748;2023-02-18T15:40:30;16.53;;;7.37;;